Pagina principale
METAR-TAF:

METAR-TAF

Aeroporti :

Aeroporto di Brescia-Ghedi

Brescia Ghedi, Italia

latitudine: 45-25N, longitudine: 010-17E, altezza: 102 m

Osservazione

Il bollettino è stato emesso 1 ora e 21 minuti fa, alle 17:55 UTC
Vento 1 kt da sud/sud-ovest
Temperature 9°C
Umidità 81%
Pressione 1027 hPa
Visibilità: 3500 m
foschia

METAR: LIPL 161755Z 20001KT 3500 BR NSC 09/06 Q1027 RMK FEW FEW200 VIS MIN 3500 WIND THR31 /////KT WIND THR13 20001KT YLO

Ora: 20:16 (19:16 UTC)

Previsione

Il bollettino è stato emesso 2 ore e 16 minuti fa, alle 17:00 UTC
Previsione valida dal 16 alle 18 UTC al 17 alle 03 UTC
Vento 3 kt da direzioni variabili
Visibilità: 3000 m
foschia
Temporaneamente
dal 16 alle 20 UTC al 17 alle 03 UTC
Visibilità: 0600 m
Nuvoloso ad un'altezza di 200 ft
nebbia

TAF: LIPL 161700Z 1618/1703 VRB03KT 3000 BR NSC TEMPO 1620/1703 0600 FG BKN002

Osservazioni e previsioni meteorologiche di più di 4000 aeroporti (messaggi METAR e TAF).

Le stazioni disponibili sono rappresentate dai dischi gialli e rossi sulla carta.

Puntare il mouse per vedere il nome della stazione.

Clicca sopra per visualizzare le osservazioni e previsioni meteorologiche.

Per cambiare la mappa : fare clic sui pulsanti verdi con una croce nera per ingrandire, il pulsante verde con un trattino per diminuire, o sulla freccia verde per le mappe adiacenti.


METAR-TAF: